Balm, Florida
Current Conditions -  °F | °C
As of 9:58 AM on Thursday 30 Oct 2014 (Local Time) from KMCF Reporting Station
Clear Clear  
Wind Chill: 76°   Ceiling: Unl
Heat Index: 78°   Visibility: 10mi
Dew Point: 71°   Wind: 5mph
Humidity: 83%   Direction: 90°E
Pressure: 29.99"   Gusts: NA
Location:  27.76°N, 82.26°W
Report Text: KMCF 301358Z AUTO 09004KT 10SM CLR 25/22 A2999 RMK AO2 SLP159 T02470216
Loading
Personal Weather Stations






























Interactive Weather Map
Tropical Storm Tracking
New forecast layout! Learn more

10-Day Weather Forecast

Advertisements
Track Severe Weather on mobile